Flight Track Log - Related Links

Times and Time Zones

All times are in EDT time to prevent confusion due to time zone crossing. See the SWA1729 flight status page for this flight to view local times or setup timezone preferences in your user account.

Time Position Orientation Groundspeed Altitude Reporting Facility
EDT Latitude Longitude Course Direction KTS MPH feet Rate Location/Type
Sat 11:45:08 AM 36.0767 -115.1706 270° West 159 183 3,500  Level Los Angeles Center
Sat 11:45:57 AM 36.0764 -115.2186 270° West 199 229 5,300 1,826 Climbing Los Angeles Center
Sat 11:47:03 AM 36.0214 -115.2764 220° Southwest 259 298 7,000 2,203 Climbing Los Angeles Center
Sat 11:48:05 AM 35.9483 -115.3050 198° South 272 313 10,000 2,952 Climbing Los Angeles Center
Sat 11:49:07 AM 35.8647 -115.3139 185° South 291 335 13,100 3,024 Climbing Los Angeles Center
Sat 11:50:08 AM 35.7700 -115.3047 176° South 329 379 16,200 2,976 Climbing Los Angeles Center
Sat 11:51:10 AM 35.6694 -115.3128 184° South 368 423 19,200 2,565 Climbing Los Angeles Center
Sat 11:52:12 AM 35.5975 -115.4036 226° Southwest 374 430 21,500 2,293 Climbing Los Angeles Center
Sat 11:53:13 AM 35.5244 -115.5022 228° Southwest 383 441 23,900 2,390 Climbing Los Angeles Center
Sat 11:54:15 AM 35.4342 -115.6242 228° Southwest 406 467 26,400 2,226 Climbing Los Angeles Center
Sat 11:55:17 AM 35.3522 -115.7319 227° Southwest 424 488 28,500 2,032 Climbing Los Angeles Center
Sat 11:56:19 AM 35.2708 -115.8400 227° Southwest 431 496 30,600 1,707 Climbing Los Angeles Center
Sat 11:57:20 AM 35.1889 -115.9486 227° Southwest 433 498 32,000 683 Climbing Los Angeles Center
Sat 11:58:22 AM 35.1050 -116.0606 228° Southwest 441 507 32,000  Level Los Angeles Center
Sat 11:59:24 AM 35.0172 -116.1750 227° Southwest 454 522 32,000  Level Los Angeles Center
Sat 12:00:26 PM 34.9267 -116.2853 225° Southwest 458 527 32,000  Level Los Angeles Center
Sat 12:01:27 PM 34.8256 -116.3844 219° Southwest 462 532 32,000  Level Los Angeles Center
Sat 12:02:29 PM 34.7089 -116.5028 220° Southwest 456 525 32,000 -339 Level Los Angeles Center
Sat 12:03:31 PM 34.6111 -116.6025 220° Southwest 458 527 31,300 -1,452 Descending Los Angeles Center
Sat 12:04:33 PM 34.5136 -116.7006 220° Southwest 454 522 29,000 -2,226 Descending Los Angeles Center
Sat 12:05:35 PM 34.4181 -116.7939 219° Southwest 443 510 26,700 -2,244 Descending Los Angeles Center
Sat 12:06:36 PM 34.3283 -116.8853 220° Southwest 425 489 24,400 -2,146 Descending Los Angeles Center
Sat 12:07:38 PM 34.2419 -116.9714 219° Southwest 407 468 22,300 -2,032 Descending Los Angeles Center
Sat 12:08:40 PM 34.1575 -117.0564 220° Southwest 396 456 20,200 -1,866 Descending Los Angeles Center
Sat 12:09:37 PM 34.0833 -117.1667 231° Southwest 354 407 18,600 -1,622 Descending Southern California TRACON
Sat 12:10:31 PM 34.0500 -117.2500 244° Southwest 328 377 17,200 -1,944 Descending Southern California TRACON
Sat 12:11:25 PM 34.0333 -117.3500 259° West 316 364 15,100 -2,158 Descending Southern California TRACON
Sat 12:12:25 PM 34.0333 -117.4500 270° West 302 348 13,100 -1,700 Descending Southern California TRACON
Sat 12:13:25 PM 34.0333 -117.5500 270° West 279 321 11,700 -1,207 Descending Southern California TRACON
Sat 12:15:19 PM 34.0167 -117.7333 264° West 253 291 9,600 -1,138 Descending Southern California TRACON
Sat 12:16:19 PM 34.0167 -117.8167 270° West 258 297 8,400 -1,150 Descending Southern California TRACON
Sat 12:17:19 PM 34.0000 -117.9000 256° West 258 297 7,300 -1,050 Descending Southern California TRACON
Sat 12:18:19 PM 34.0000 -117.9833 270° West 263 303 6,300 -1,000 Descending Southern California TRACON
Sat 12:19:13 PM 33.9833 -118.0667 256° West 253 291 5,400 -1,050 Descending Southern California TRACON
Sat 12:20:19 PM 33.9833 -118.1500 270° West 242 278 4,200 -1,111 Descending Southern California TRACON
Sat 12:21:01 PM 33.9722 -118.2072 257° West 245 282 3,400 -1,212 Descending Los Angeles Center
Sat 12:22:03 PM 33.9639 -118.2800 262° West 231 266 2,100 -1,016 Descending Los Angeles Center
Sat 12:23:05 PM 33.9592 -118.3342 264° West 188 216 1,300 -780 Descending Los Angeles Center
Sat 12:24:06 PM 33.9556 -118.3819 265° West 162 186 500 -537 Descending Los Angeles Center
Sat 12:25:08 PM 33.9511 -118.4267 263° West 157 181 200 -290 Descending Los Angeles Center
Sat 12:27:00 PM 33.9425 -118.4081 259° West  Level Estimated

Login

Don't have an account? Register now (free) for customized features, flight alerts, and more!